Time,TemperatureC,DewpointC,PressurehPa,WindDirection,WindDirectionDegrees,WindSpeedKMH,WindSpeedGustKMH,Humidity,HourlyPrecipMM,Conditions,Clouds,dailyrainMM,SoftwareType,DateUTC
2019-08-20 00:00:51,15.1,10.1,1020.9,WNW,292,0.0,1.6,72,0.0,,,0.0,meteobridge,2019-08-19 22:00:51,
2019-08-20 00:05:51,15.1,10.1,1020.9,West,277,0.0,0.0,72,0.0,,,0.0,meteobridge,2019-08-19 22:05:51,
2019-08-20 00:10:53,14.9,9.9,1020.9,West,277,0.0,0.0,72,0.0,,,0.0,meteobridge,2019-08-19 22:10:53,
2019-08-20 00:15:53,14.8,10.0,1020.9,NE,34,0.0,1.6,73,0.0,,,0.0,meteobridge,2019-08-19 22:15:53,
2019-08-20 00:20:57,14.9,10.3,1020.9,NE,39,0.0,1.6,74,0.0,,,0.0,meteobridge,2019-08-19 22:20:57,
2019-08-20 00:26:00,14.8,10.2,1020.9,NNE,15,0.0,0.0,74,0.0,,,0.0,meteobridge,2019-08-19 22:26:00,
2019-08-20 00:30:00,14.7,10.3,1021.2,NW,321,0.0,0.0,75,0.0,,,0.0,meteobridge,2019-08-19 22:30:00,
2019-08-20 00:35:00,14.6,10.2,1021.2,WNW,295,0.0,0.0,75,0.0,,,0.0,meteobridge,2019-08-19 22:35:00,
2019-08-20 00:40:00,14.5,10.3,1021.2,North,4,0.0,0.0,76,0.0,,,0.0,meteobridge,2019-08-19 22:40:00,
2019-08-20 00:45:00,14.4,10.2,1021.2,ENE,75,0.0,1.6,76,0.0,,,0.0,meteobridge,2019-08-19 22:45:00,
2019-08-20 00:50:00,14.3,10.3,1021.2,ENE,74,1.4,1.6,77,0.0,,,0.0,meteobridge,2019-08-19 22:50:00,
2019-08-20 00:55:00,14.2,10.2,1021.2,ENE,72,0.0,0.0,77,0.0,,,0.0,meteobridge,2019-08-19 22:55:00,
2019-08-20 01:00:00,14.1,10.3,1021.2,WNW,293,0.0,1.6,78,0.0,,,0.0,meteobridge,2019-08-19 23:00:00,
2019-08-20 01:05:00,14.0,10.2,1021.2,SW,224,0.0,1.6,78,0.0,,,0.0,meteobridge,2019-08-19 23:05:00,
2019-08-20 01:10:00,13.9,10.3,1021.2,ENE,72,0.0,1.6,79,0.0,,,0.0,meteobridge,2019-08-19 23:10:00,
2019-08-20 01:15:01,13.9,10.3,1021.2,East,81,0.0,1.6,79,0.0,,,0.0,meteobridge,2019-08-19 23:15:01,
2019-08-20 01:20:07,13.8,10.2,1021.2,WNW,289,0.0,1.6,79,0.0,,,0.0,meteobridge,2019-08-19 23:20:07,
2019-08-20 01:25:13,13.7,10.1,1021.2,WNW,290,0.0,1.6,79,0.0,,,0.0,meteobridge,2019-08-19 23:25:13,
2019-08-20 01:30:17,13.7,10.3,1021.2,WSW,247,0.0,3.2,80,0.0,,,0.0,meteobridge,2019-08-19 23:30:17,
2019-08-20 01:35:19,13.6,10.2,1021.2,West,259,1.4,1.6,80,0.0,,,0.0,meteobridge,2019-08-19 23:35:19,
2019-08-20 01:40:19,13.6,10.2,1021.2,West,260,0.0,3.2,80,0.0,,,0.0,meteobridge,2019-08-19 23:40:19,
2019-08-20 01:45:19,13.6,10.4,1021.2,West,281,0.0,1.6,81,0.0,,,0.0,meteobridge,2019-08-19 23:45:19,
2019-08-20 01:50:25,13.5,10.3,1021.2,West,275,0.0,1.6,81,0.0,,,0.0,meteobridge,2019-08-19 23:50:25,
2019-08-20 01:55:29,13.4,10.2,1021.2,SW,235,0.0,0.0,81,0.0,,,0.0,meteobridge,2019-08-19 23:55:29,
2019-08-20 02:00:33,13.4,10.4,1021.2,West,265,0.0,0.0,82,0.0,,,0.0,meteobridge,2019-08-20 00:00:33,
2019-08-20 02:05:37,13.3,10.3,1021.2,West,281,1.4,1.6,82,0.0,,,0.0,meteobridge,2019-08-20 00:05:37,
2019-08-20 02:10:43,13.3,10.3,1021.2,West,271,0.0,3.2,82,0.0,,,0.0,meteobridge,2019-08-20 00:10:43,
2019-08-20 02:15:47,13.3,10.3,1021.2,West,267,0.0,1.6,82,0.0,,,0.0,meteobridge,2019-08-20 00:15:47,
2019-08-20 02:20:51,13.2,10.4,1021.2,West,268,0.0,1.6,83,0.0,,,0.0,meteobridge,2019-08-20 00:20:51,
2019-08-20 02:25:55,13.2,10.4,1021.2,West,266,0.0,0.0,83,0.0,,,0.0,meteobridge,2019-08-20 00:25:55,
2019-08-20 02:30:59,13.2,10.4,1021.2,West,262,0.0,1.6,83,0.0,,,0.0,meteobridge,2019-08-20 00:30:59,
2019-08-20 02:35:03,13.1,10.3,1021.2,West,262,0.0,0.0,83,0.0,,,0.0,meteobridge,2019-08-20 00:35:03,
2019-08-20 02:40:09,13.1,10.5,1021.2,West,264,0.0,0.0,84,0.0,,,0.0,meteobridge,2019-08-20 00:40:09,
2019-08-20 02:45:11,13.0,10.4,1021.2,West,264,0.0,0.0,84,0.0,,,0.0,meteobridge,2019-08-20 00:45:11,
2019-08-20 02:50:13,12.9,10.3,1021.2,West,264,0.0,0.0,84,0.0,,,0.0,meteobridge,2019-08-20 00:50:13,
2019-08-20 02:55:17,12.9,10.4,1021.2,West,262,0.0,1.6,85,0.0,,,0.0,meteobridge,2019-08-20 00:55:17,
2019-08-20 03:00:17,12.9,10.4,1021.2,West,264,0.0,0.0,85,0.0,,,0.0,meteobridge,2019-08-20 01:00:17,
2019-08-20 03:05:23,12.8,10.3,1021.2,West,264,0.0,0.0,85,0.0,,,0.0,meteobridge,2019-08-20 01:05:23,
2019-08-20 03:10:28,12.7,10.2,1021.2,West,264,0.0,0.0,85,0.0,,,0.0,meteobridge,2019-08-20 01:10:28,
2019-08-20 03:15:29,12.7,10.4,1021.2,WSW,248,0.0,1.6,86,0.0,,,0.0,meteobridge,2019-08-20 01:15:29,
2019-08-20 03:20:33,12.6,10.3,1021.6,WSW,249,0.0,1.6,86,0.0,,,0.0,meteobridge,2019-08-20 01:20:33,
2019-08-20 03:25:37,12.6,10.5,1021.2,WNW,286,0.0,1.6,87,0.0,,,0.0,meteobridge,2019-08-20 01:25:37,
2019-08-20 03:30:41,12.6,10.5,1021.6,WNW,285,0.0,0.0,87,0.0,,,0.0,meteobridge,2019-08-20 01:30:41,
2019-08-20 03:35:45,12.5,10.4,1021.6,WNW,286,1.6,1.6,87,0.0,,,0.0,meteobridge,2019-08-20 01:35:45,
2019-08-20 03:40:49,12.4,10.3,1021.6,WNW,286,0.0,0.0,87,0.0,,,0.0,meteobridge,2019-08-20 01:40:49,
2019-08-20 03:45:49,12.4,10.3,1021.6,WNW,285,0.0,0.0,87,0.0,,,0.0,meteobridge,2019-08-20 01:45:49,
2019-08-20 03:50:55,12.3,10.4,1021.6,WNW,285,0.0,0.0,88,0.0,,,0.0,meteobridge,2019-08-20 01:50:55,
2019-08-20 03:55:59,12.2,10.3,1021.6,WNW,285,0.0,0.0,88,0.0,,,0.0,meteobridge,2019-08-20 01:55:59,
2019-08-20 04:00:00,12.2,10.3,1021.6,WNW,286,0.0,0.0,88,0.0,,,0.0,meteobridge,2019-08-20 02:00:00,
2019-08-20 04:05:00,12.2,10.4,1021.6,WNW,285,0.0,0.0,89,0.0,,,0.0,meteobridge,2019-08-20 02:05:00,
2019-08-20 04:10:00,12.1,10.3,1021.6,WNW,285,0.0,0.0,89,0.0,,,0.0,meteobridge,2019-08-20 02:10:00,
2019-08-20 04:15:00,12.1,10.3,1021.6,WNW,285,0.0,0.0,89,0.0,,,0.0,meteobridge,2019-08-20 02:15:00,
2019-08-20 04:20:03,12.1,10.3,1021.6,WNW,285,0.0,0.0,89,0.0,,,0.0,meteobridge,2019-08-20 02:20:03,
2019-08-20 04:25:07,12.0,10.4,1021.6,WNW,285,0.0,0.0,90,0.0,,,0.0,meteobridge,2019-08-20 02:25:07,
2019-08-20 04:30:09,12.0,10.4,1021.6,WNW,286,0.0,0.0,90,0.0,,,0.0,meteobridge,2019-08-20 02:30:09,
2019-08-20 04:35:15,12.0,10.4,1021.6,WNW,285,0.0,0.0,90,0.0,,,0.0,meteobridge,2019-08-20 02:35:15,
2019-08-20 04:40:17,12.0,10.4,1021.6,WNW,285,0.0,1.6,90,0.0,,,0.0,meteobridge,2019-08-20 02:40:17,
2019-08-20 04:45:21,12.0,10.4,1021.6,West,274,0.0,1.6,90,0.0,,,0.0,meteobridge,2019-08-20 02:45:21,
2019-08-20 04:50:27,11.9,10.3,1021.6,West,261,0.0,1.6,90,0.0,,,0.0,meteobridge,2019-08-20 02:50:27,
2019-08-20 04:55:35,12.0,10.6,1021.6,West,274,0.0,0.0,91,0.0,,,0.0,meteobridge,2019-08-20 02:55:35,
2019-08-20 05:00:39,11.9,10.3,1021.6,West,274,0.0,0.0,90,0.0,,,0.0,meteobridge,2019-08-20 03:00:39,
2019-08-20 05:05:45,11.9,10.3,1021.6,West,274,0.0,0.0,90,0.0,,,0.0,meteobridge,2019-08-20 03:05:45,
2019-08-20 05:10:49,11.9,10.5,1021.6,West,271,0.0,1.6,91,0.0,,,0.0,meteobridge,2019-08-20 03:10:49,
2019-08-20 05:15:53,11.9,10.5,1021.6,WNW,289,0.0,1.6,91,0.0,,,0.0,meteobridge,2019-08-20 03:15:53,
2019-08-20 05:20:53,11.9,10.5,1021.6,WSW,258,0.0,1.6,91,0.0,,,0.0,meteobridge,2019-08-20 03:20:53,
2019-08-20 05:25:55,11.9,10.5,1021.6,WSW,258,0.0,1.6,91,0.0,,,0.0,meteobridge,2019-08-20 03:25:55,
2019-08-20 05:31:00,11.9,10.5,1021.6,WSW,258,0.0,1.6,91,0.0,,,0.0,meteobridge,2019-08-20 03:31:00,
2019-08-20 05:35:00,11.8,10.4,1021.6,NW,309,0.0,0.0,91,0.0,,,0.0,meteobridge,2019-08-20 03:35:00,
2019-08-20 05:40:03,11.9,10.6,1021.6,West,268,0.0,1.6,92,0.0,,,0.0,meteobridge,2019-08-20 03:40:03,
2019-08-20 05:45:07,11.8,10.5,1021.6,WNW,287,1.4,1.6,92,0.0,,,0.0,meteobridge,2019-08-20 03:45:07,
2019-08-20 05:50:09,11.8,10.5,1021.6,WNW,282,0.0,0.0,92,0.0,,,0.0,meteobridge,2019-08-20 03:50:09,
2019-08-20 05:55:13,11.8,10.5,1021.6,WNW,283,0.0,1.6,92,0.0,,,0.0,meteobridge,2019-08-20 03:55:13,
2019-08-20 06:00:15,11.8,10.5,1021.6,West,273,0.0,1.6,92,0.0,,,0.0,meteobridge,2019-08-20 04:00:15,
2019-08-20 06:05:21,11.8,10.5,1021.9,West,274,0.0,1.6,92,0.0,,,0.0,meteobridge,2019-08-20 04:05:21,
2019-08-20 06:10:25,11.8,10.5,1021.9,West,274,0.0,0.0,92,0.0,,,0.0,meteobridge,2019-08-20 04:10:25,
2019-08-20 06:15:28,11.8,10.5,1021.9,West,274,0.0,0.0,92,0.0,,,0.0,meteobridge,2019-08-20 04:15:28,
2019-08-20 06:20:29,11.8,10.5,1021.9,West,279,0.0,0.0,92,0.0,,,0.0,meteobridge,2019-08-20 04:20:29,
2019-08-20 06:25:33,11.8,10.5,1021.9,West,279,0.0,1.6,92,0.0,,,0.0,meteobridge,2019-08-20 04:25:33,
2019-08-20 06:30:37,11.7,10.4,1021.9,West,278,0.0,0.0,92,0.0,,,0.0,meteobridge,2019-08-20 04:30:37,
2019-08-20 06:35:43,11.7,10.4,1022.2,West,279,0.0,0.0,92,0.0,,,0.0,meteobridge,2019-08-20 04:35:43,
2019-08-20 06:40:49,11.7,10.6,1022.2,West,279,0.0,0.0,93,0.0,,,0.0,meteobridge,2019-08-20 04:40:49,
2019-08-20 06:45:49,11.7,10.6,1022.2,West,277,0.0,0.0,93,0.0,,,0.0,meteobridge,2019-08-20 04:45:49,
2019-08-20 06:50:55,11.8,10.7,1022.2,SW,229,0.0,1.6,93,0.0,,,0.0,meteobridge,2019-08-20 04:50:55,
2019-08-20 06:55:59,11.8,10.7,1022.6,West,268,0.0,1.6,93,0.0,,,0.0,meteobridge,2019-08-20 04:55:59,
2019-08-20 07:01:00,11.8,10.7,1022.6,West,268,0.0,1.6,93,0.0,,,0.0,meteobridge,2019-08-20 05:01:00,
2019-08-20 07:05:00,11.8,10.7,1022.6,West,268,0.0,1.6,93,0.0,,,0.0,meteobridge,2019-08-20 05:05:00,
2019-08-20 07:10:01,11.8,10.7,1022.6,NE,53,0.0,0.0,93,0.0,,,0.0,meteobridge,2019-08-20 05:10:01,
2019-08-20 07:15:05,11.9,10.8,1022.6,East,88,0.0,1.6,93,0.0,,,0.0,meteobridge,2019-08-20 05:15:05,
2019-08-20 07:20:09,12.0,10.9,1022.9,WNW,289,0.0,1.6,93,0.0,,,0.0,meteobridge,2019-08-20 05:20:09,
2019-08-20 07:25:13,12.0,10.9,1022.9,WNW,289,0.0,1.6,93,0.0,,,0.0,meteobridge,2019-08-20 05:25:13,
2019-08-20 07:30:13,12.1,11.0,1022.9,WNW,289,0.0,1.6,93,0.0,,,0.0,meteobridge,2019-08-20 05:30:13,
2019-08-20 07:35:13,12.1,11.0,1023.2,West,273,0.0,1.6,93,0.0,,,0.0,meteobridge,2019-08-20 05:35:13,
2019-08-20 07:40:17,12.2,11.1,1022.9,West,276,0.0,1.6,93,0.0,,,0.0,meteobridge,2019-08-20 05:40:17,
2019-08-20 07:45:17,12.2,10.9,1023.2,WSW,244,0.0,3.2,92,0.0,,,0.0,meteobridge,2019-08-20 05:45:17,
2019-08-20 07:50:17,12.3,11.0,1023.2,West,264,0.0,3.2,92,0.0,,,0.0,meteobridge,2019-08-20 05:50:17,
2019-08-20 07:55:17,12.4,11.1,1023.2,WSW,256,0.0,1.6,92,0.0,,,0.0,meteobridge,2019-08-20 05:55:17,
2019-08-20 08:00:19,12.5,11.2,1023.2,West,261,1.4,3.2,92,0.0,,,0.0,meteobridge,2019-08-20 06:00:19,
2019-08-20 08:05:19,12.5,11.2,1023.2,WNW,293,0.0,3.2,92,0.0,,,0.0,meteobridge,2019-08-20 06:05:19,
2019-08-20 08:10:23,12.6,11.2,1022.9,WNW,289,0.0,4.8,91,0.0,,,0.0,meteobridge,2019-08-20 06:10:23,
2019-08-20 08:15:27,12.7,11.3,1023.2,WNW,284,0.0,3.2,91,0.0,,,0.0,meteobridge,2019-08-20 06:15:27,
2019-08-20 08:20:28,12.8,11.4,1023.2,NW,307,0.0,1.6,91,0.0,,,0.0,meteobridge,2019-08-20 06:20:28,
2019-08-20 08:25:35,12.9,11.5,1023.2,SW,219,0.0,3.2,91,0.0,,,0.0,meteobridge,2019-08-20 06:25:35,
2019-08-20 08:30:39,13.1,11.7,1023.2,West,259,0.0,1.6,91,0.0,,,0.0,meteobridge,2019-08-20 06:30:39,
2019-08-20 08:35:43,13.2,11.6,1023.2,West,266,1.4,4.8,90,0.0,,,0.0,meteobridge,2019-08-20 06:35:43,
2019-08-20 08:40:43,13.3,11.7,1023.2,WSW,244,1.4,3.2,90,0.0,,,0.0,meteobridge,2019-08-20 06:40:43,
2019-08-20 08:45:45,13.4,11.6,1023.2,East,89,0.0,6.4,89,0.0,,,0.0,meteobridge,2019-08-20 06:45:45,
2019-08-20 08:50:50,13.6,11.8,1023.2,SW,217,0.0,3.2,89,0.0,,,0.0,meteobridge,2019-08-20 06:50:50,
2019-08-20 08:55:50,13.7,11.9,1023.2,ENE,78,0.0,3.2,89,0.0,,,0.0,meteobridge,2019-08-20 06:55:50,
2019-08-20 09:00:50,13.8,12.0,1023.2,West,261,0.0,1.6,89,0.0,,,0.0,meteobridge,2019-08-20 07:00:50,
2019-08-20 09:05:50,13.9,12.1,1023.2,WSW,249,0.0,1.6,89,0.0,,,0.0,meteobridge,2019-08-20 07:05:50,
2019-08-20 09:10:50,14.1,12.3,1023.6,ENE,72,0.0,1.6,89,0.0,,,0.0,meteobridge,2019-08-20 07:10:50,
2019-08-20 09:15:50,14.3,12.3,1023.6,WSW,251,0.0,6.4,88,0.0,,,0.0,meteobridge,2019-08-20 07:15:50,
2019-08-20 09:20:50,14.5,12.5,1023.6,ENE,65,0.0,1.6,88,0.0,,,0.0,meteobridge,2019-08-20 07:20:50,
2019-08-20 09:25:50,14.7,12.6,1023.6,WSW,257,0.0,4.8,87,0.0,,,0.0,meteobridge,2019-08-20 07:25:50,
2019-08-20 09:30:50,14.8,12.7,1023.9,NNE,28,0.0,3.2,87,0.0,,,0.0,meteobridge,2019-08-20 07:30:50,
2019-08-20 09:35:50,15.0,12.9,1023.9,East,95,1.4,6.4,87,0.0,,,0.0,meteobridge,2019-08-20 07:35:50,
2019-08-20 09:40:50,15.2,12.9,1023.9,NE,51,1.4,1.6,86,0.0,,,0.0,meteobridge,2019-08-20 07:40:50,
2019-08-20 09:45:50,15.2,12.9,1023.9,SW,233,0.0,3.2,86,0.0,,,0.0,meteobridge,2019-08-20 07:45:50,
2019-08-20 09:50:50,15.3,13.0,1023.9,East,81,1.4,3.2,86,0.0,,,0.0,meteobridge,2019-08-20 07:50:50,
2019-08-20 09:55:50,15.5,13.2,1023.9,ENE,61,0.0,1.6,86,0.0,,,0.0,meteobridge,2019-08-20 07:55:50,
2019-08-20 10:00:50,15.7,13.2,1023.9,NNW,342,0.0,1.6,85,0.0,,,0.0,meteobridge,2019-08-20 08:00:50,
2019-08-20 10:05:50,15.8,13.1,1023.9,West,264,0.0,4.8,84,0.0,,,0.0,meteobridge,2019-08-20 08:05:50,
2019-08-20 10:10:50,15.9,13.2,1023.6,North,349,1.4,3.2,84,0.0,,,0.0,meteobridge,2019-08-20 08:10:50,
2019-08-20 10:15:50,16.1,13.2,1023.6,WNW,292,0.0,3.2,83,0.0,,,0.0,meteobridge,2019-08-20 08:15:50,
2019-08-20 10:20:50,16.3,13.2,1023.6,WSW,253,3.2,11.3,82,0.0,,,0.0,meteobridge,2019-08-20 08:20:50,
2019-08-20 10:25:50,16.5,13.0,1023.6,WNW,283,7.9,14.5,80,0.0,,,0.0,meteobridge,2019-08-20 08:25:50,
2019-08-20 10:30:52,16.6,13.1,1023.6,NNW,328,1.4,6.4,80,0.0,,,0.0,meteobridge,2019-08-20 08:30:52,
2019-08-20 10:35:52,16.7,13.0,1023.6,East,84,3.2,14.5,79,0.0,,,0.0,meteobridge,2019-08-20 08:35:52,
2019-08-20 10:40:52,17.0,13.1,1023.6,West,264,4.7,6.4,78,0.0,,,0.0,meteobridge,2019-08-20 08:40:52,
2019-08-20 10:45:52,17.3,13.2,1023.6,West,269,12.9,12.9,77,0.0,,,0.0,meteobridge,2019-08-20 08:45:52,
2019-08-20 10:50:52,17.3,13.0,1023.6,West,275,7.9,11.3,76,0.0,,,0.0,meteobridge,2019-08-20 08:50:52,
2019-08-20 10:55:54,17.6,12.9,1023.6,WNW,287,11.1,14.5,74,0.0,,,0.0,meteobridge,2019-08-20 08:55:54,
2019-08-20 11:00:54,17.6,12.5,1023.6,North,4,16.1,16.1,72,0.0,,,0.0,meteobridge,2019-08-20 09:00:54,
2019-08-20 11:05:54,17.5,12.2,1023.6,WNW,282,4.7,14.5,71,0.0,,,0.0,meteobridge,2019-08-20 09:05:54,
2019-08-20 11:10:56,17.5,12.4,1023.6,WNW,295,6.4,8.0,72,0.0,,,0.0,meteobridge,2019-08-20 09:10:56,
2019-08-20 11:15:56,17.7,12.6,1023.9,NNW,330,6.4,14.5,72,0.0,,,0.0,meteobridge,2019-08-20 09:15:56,
2019-08-20 11:20:56,17.8,12.5,1023.9,WNW,290,4.7,8.0,71,0.0,,,0.0,meteobridge,2019-08-20 09:20:56,
2019-08-20 11:25:58,18.1,12.5,1023.9,WSW,250,9.7,12.9,70,0.0,,,0.0,meteobridge,2019-08-20 09:25:58,
2019-08-20 11:30:58,18.2,12.2,1023.9,West,268,7.9,16.1,68,0.0,,,0.0,meteobridge,2019-08-20 09:30:58,
2019-08-20 11:35:58,18.2,12.0,1023.9,West,279,17.7,17.7,67,0.0,,,0.0,meteobridge,2019-08-20 09:35:58,
2019-08-20 11:40:00,18.3,11.8,1023.6,WNW,289,11.1,12.9,66,0.0,,,0.0,meteobridge,2019-08-20 09:40:00,
2019-08-20 11:45:00,18.4,11.9,1023.6,West,277,0.0,20.9,66,0.0,,,0.0,meteobridge,2019-08-20 09:45:00,
2019-08-20 11:50:00,18.6,11.7,1023.6,West,277,4.7,9.7,64,0.0,,,0.0,meteobridge,2019-08-20 09:50:00,
2019-08-20 11:55:00,18.8,11.6,1023.9,NW,309,4.7,6.4,63,0.0,,,0.0,meteobridge,2019-08-20 09:55:00,
2019-08-20 12:00:00,19.1,11.6,1023.9,NE,34,13.0,12.9,62,0.0,,,0.0,meteobridge,2019-08-20 10:00:00,
2019-08-20 12:05:00,19.3,11.8,1023.9,WNW,298,3.2,9.7,62,0.0,,,0.0,meteobridge,2019-08-20 10:05:00,
2019-08-20 12:10:00,19.5,11.5,1023.9,WSW,247,0.0,6.4,60,0.0,,,0.0,meteobridge,2019-08-20 10:10:00,
2019-08-20 12:15:00,19.7,11.2,1023.9,East,80,1.4,9.7,58,0.0,,,0.0,meteobridge,2019-08-20 10:15:00,
2019-08-20 12:20:00,19.7,10.9,1023.9,North,349,3.2,6.4,57,0.0,,,0.0,meteobridge,2019-08-20 10:20:00,
2019-08-20 12:25:00,19.7,10.9,1023.9,NNE,16,3.2,9.7,57,0.0,,,0.0,meteobridge,2019-08-20 10:25:00,
2019-08-20 12:30:00,19.7,11.2,1023.9,WSW,238,16.3,16.1,58,0.0,,,0.0,meteobridge,2019-08-20 10:30:00,
2019-08-20 12:35:00,19.6,11.1,1023.9,NNE,22,11.1,12.9,58,0.0,,,0.0,meteobridge,2019-08-20 10:35:00,
2019-08-20 12:40:00,19.5,11.0,1023.9,SW,224,0.0,9.7,58,0.0,,,0.0,meteobridge,2019-08-20 10:40:00,
2019-08-20 12:45:00,19.5,10.8,1023.9,WSW,239,4.7,16.1,57,0.0,,,0.0,meteobridge,2019-08-20 10:45:00,
2019-08-20 12:50:00,19.5,11.0,1023.9,West,266,4.7,9.7,58,0.0,,,0.0,meteobridge,2019-08-20 10:50:00,
2019-08-20 12:55:00,19.4,10.4,1023.9,West,270,11.1,14.5,56,0.0,,,0.0,meteobridge,2019-08-20 10:55:00,
2019-08-20 13:00:00,19.6,10.6,1023.9,West,276,0.0,6.4,56,0.0,,,0.0,meteobridge,2019-08-20 11:00:00,
2019-08-20 13:05:01,19.9,11.1,1023.9,West,277,3.2,6.4,57,0.0,,,0.0,meteobridge,2019-08-20 11:05:01,
2019-08-20 13:10:02,20.3,10.4,1023.9,WNW,295,11.3,11.3,53,0.0,,,0.0,meteobridge,2019-08-20 11:10:02,
2019-08-20 13:15:04,20.6,10.4,1023.9,NE,44,4.7,8.0,52,0.0,,,0.0,meteobridge,2019-08-20 11:15:04,
2019-08-20 13:20:06,20.6,10.4,1023.6,ESE,103,1.4,8.0,52,0.0,,,0.0,meteobridge,2019-08-20 11:20:06,
2019-08-20 13:25:08,20.6,10.4,1023.6,West,268,11.1,17.7,52,0.0,,,0.0,meteobridge,2019-08-20 11:25:08,
2019-08-20 13:30:08,20.7,10.8,1023.6,SE,144,3.2,6.4,53,0.0,,,0.0,meteobridge,2019-08-20 11:30:08,
2019-08-20 13:35:10,21.0,9.9,1023.6,SSE,160,3.2,17.7,49,0.0,,,0.0,meteobridge,2019-08-20 11:35:10,
2019-08-20 13:40:10,20.9,9.8,1023.6,SW,221,1.4,11.3,49,0.0,,,0.0,meteobridge,2019-08-20 11:40:10,
2019-08-20 13:45:12,20.9,9.8,1023.9,WSW,245,17.7,20.9,49,0.0,,,0.0,meteobridge,2019-08-20 11:45:12,
2019-08-20 13:50:14,20.9,9.8,1023.6,WSW,245,6.4,6.4,49,0.0,,,0.0,meteobridge,2019-08-20 11:50:14,
2019-08-20 13:55:16,21.1,10.0,1023.6,SE,137,1.4,17.7,49,0.0,,,0.0,meteobridge,2019-08-20 11:55:16,
2019-08-20 14:00:19,21.2,10.1,1023.6,WNW,286,1.4,8.0,49,0.0,,,0.0,meteobridge,2019-08-20 12:00:19,
2019-08-20 14:05:20,21.2,10.1,1023.2,East,100,1.4,20.9,49,0.0,,,0.0,meteobridge,2019-08-20 12:05:20,
2019-08-20 14:10:20,21.2,10.1,1023.6,ENE,63,1.4,6.4,49,0.0,,,0.0,meteobridge,2019-08-20 12:10:20,
2019-08-20 14:15:20,21.5,10.3,1023.6,WNW,288,14.3,14.5,49,0.0,,,0.0,meteobridge,2019-08-20 12:15:20,
2019-08-20 14:20:20,21.4,10.5,1023.6,East,90,3.2,8.0,50,0.0,,,0.0,meteobridge,2019-08-20 12:20:20,
2019-08-20 14:25:20,21.2,9.8,1023.6,West,272,17.7,17.7,48,0.0,,,0.0,meteobridge,2019-08-20 12:25:20,
2019-08-20 14:30:20,20.4,11.1,1023.9,WSW,255,9.7,20.9,55,0.0,,,0.0,meteobridge,2019-08-20 12:30:20,
2019-08-20 14:35:22,19.8,11.6,1023.9,WNW,283,9.7,16.1,59,0.0,,,0.0,meteobridge,2019-08-20 12:35:22,
2019-08-20 14:40:22,19.6,12.1,1023.9,NE,41,3.2,19.3,62,0.0,,,0.0,meteobridge,2019-08-20 12:40:22,
2019-08-20 14:45:22,19.6,12.1,1024.3,WNW,288,1.4,9.7,62,0.0,,,0.0,meteobridge,2019-08-20 12:45:22,
2019-08-20 14:50:24,19.4,11.9,1024.3,East,101,4.7,12.9,62,0.0,,,0.0,meteobridge,2019-08-20 12:50:24,
2019-08-20 14:55:26,19.3,12.1,1024.3,WNW,290,6.4,9.7,63,0.0,,,0.0,meteobridge,2019-08-20 12:55:26,
2019-08-20 15:00:26,19.4,12.2,1024.3,SE,134,3.2,8.0,63,0.0,,,0.0,meteobridge,2019-08-20 13:00:26,
2019-08-20 15:05:28,19.6,12.4,1024.3,West,279,7.9,17.7,63,0.0,,,0.0,meteobridge,2019-08-20 13:05:28,
2019-08-20 15:10:28,20.2,12.2,1024.3,NW,310,3.2,9.7,60,0.0,,,0.0,meteobridge,2019-08-20 13:10:28,
2019-08-20 15:15:28,20.4,11.3,1023.9,WNW,285,3.2,17.7,56,0.0,,,0.0,meteobridge,2019-08-20 13:15:28,
2019-08-20 15:20:28,20.8,11.7,1024.3,WNW,291,9.7,11.3,56,0.0,,,0.0,meteobridge,2019-08-20 13:20:28,
2019-08-20 15:25:28,20.8,11.7,1024.3,West,272,1.4,3.2,56,0.0,,,0.0,meteobridge,2019-08-20 13:25:28,
2019-08-20 15:30:28,20.6,11.5,1023.9,West,274,7.9,9.7,56,0.0,,,0.0,meteobridge,2019-08-20 13:30:28,
2019-08-20 15:35:28,20.6,11.8,1024.3,NW,315,3.2,9.7,57,0.0,,,0.0,meteobridge,2019-08-20 13:35:28,
2019-08-20 15:40:28,20.5,11.1,1024.3,SW,220,3.2,12.9,55,0.0,,,0.0,meteobridge,2019-08-20 13:40:28,
2019-08-20 15:45:28,20.4,11.9,1024.3,West,265,4.7,12.9,58,0.0,,,0.0,meteobridge,2019-08-20 13:45:28,
2019-08-20 15:50:28,20.7,11.9,1024.3,NW,305,1.4,12.9,57,0.0,,,0.0,meteobridge,2019-08-20 13:50:28,
2019-08-20 15:55:29,21.1,12.0,1024.3,West,281,9.7,14.5,56,0.0,,,0.0,meteobridge,2019-08-20 13:55:29,
2019-08-20 16:00:30,21.4,11.7,1024.3,NNW,335,4.7,11.3,54,0.0,,,0.0,meteobridge,2019-08-20 14:00:30,
2019-08-20 16:05:30,21.8,11.8,1024.3,WSW,257,1.4,11.3,53,0.0,,,0.0,meteobridge,2019-08-20 14:05:30,
2019-08-20 16:10:32,22.0,11.7,1024.3,WSW,255,4.7,12.9,52,0.0,,,0.0,meteobridge,2019-08-20 14:10:32,
2019-08-20 16:15:36,21.9,11.3,1024.3,West,270,9.7,14.5,51,0.0,,,0.0,meteobridge,2019-08-20 14:15:36,
2019-08-20 16:20:40,21.9,11.0,1024.3,West,264,4.7,6.4,50,0.0,,,0.0,meteobridge,2019-08-20 14:20:40,
2019-08-20 16:25:44,22.1,9.9,1024.3,West,264,7.9,16.1,46,0.0,,,0.0,meteobridge,2019-08-20 14:25:44,
2019-08-20 16:30:48,22.1,9.3,1024.3,WNW,283,16.3,17.7,44,0.0,,,0.0,meteobridge,2019-08-20 14:30:48,
2019-08-20 16:35:52,22.3,9.8,1024.3,West,276,9.7,14.5,45,0.0,,,0.0,meteobridge,2019-08-20 14:35:52,
2019-08-20 16:40:52,22.5,10.3,1024.3,West,264,4.7,19.3,46,0.0,,,0.0,meteobridge,2019-08-20 14:40:52,
2019-08-20 16:45:54,22.7,9.8,1024.3,WNW,290,4.7,16.1,44,0.0,,,0.0,meteobridge,2019-08-20 14:45:54,
2019-08-20 16:50:58,22.6,10.7,1024.6,SW,229,7.9,19.3,47,0.0,,,0.0,meteobridge,2019-08-20 14:50:58,
2019-08-20 16:55:00,22.7,10.8,1024.6,WNW,303,9.7,11.3,47,0.0,,,0.0,meteobridge,2019-08-20 14:55:00,
2019-08-20 17:00:00,22.7,9.8,1024.6,WSW,243,12.9,12.9,44,0.0,,,0.0,meteobridge,2019-08-20 15:00:00,
2019-08-20 17:05:00,22.4,8.9,1024.6,West,277,3.2,8.0,42,0.0,,,0.0,meteobridge,2019-08-20 15:05:00,
2019-08-20 17:10:00,22.4,9.2,1024.6,West,279,7.9,17.7,43,0.0,,,0.0,meteobridge,2019-08-20 15:10:00,
2019-08-20 17:15:02,22.3,9.1,1024.6,WNW,288,11.1,14.5,43,0.0,,,0.0,meteobridge,2019-08-20 15:15:02,
2019-08-20 17:20:06,21.8,9.3,1024.6,WNW,290,3.2,11.3,45,0.0,,,0.0,meteobridge,2019-08-20 15:20:06,
2019-08-20 17:25:10,21.8,9.7,1024.6,WNW,289,1.4,14.5,46,0.0,,,0.0,meteobridge,2019-08-20 15:25:10,
2019-08-20 17:30:12,21.6,9.8,1024.9,West,261,4.7,9.7,47,0.0,,,0.0,meteobridge,2019-08-20 15:30:12,
2019-08-20 17:35:14,21.4,9.6,1024.9,West,281,6.4,11.3,47,0.0,,,0.0,meteobridge,2019-08-20 15:35:14,
2019-08-20 17:40:14,21.4,9.3,1024.9,West,269,6.4,12.9,46,0.0,,,0.0,meteobridge,2019-08-20 15:40:14,
2019-08-20 17:45:16,21.3,9.8,1024.6,WNW,290,9.7,11.3,48,0.0,,,0.0,meteobridge,2019-08-20 15:45:16,
2019-08-20 17:50:16,21.3,9.5,1024.6,East,80,3.2,11.3,47,0.0,,,0.0,meteobridge,2019-08-20 15:50:16,
2019-08-20 17:55:20,21.3,9.8,1024.6,ENE,75,1.4,12.9,48,0.0,,,0.0,meteobridge,2019-08-20 15:55:20,
2019-08-20 18:00:20,21.3,9.8,1024.9,WSW,241,1.4,11.3,48,0.0,,,0.0,meteobridge,2019-08-20 16:00:20,
2019-08-20 18:05:20,21.4,9.6,1024.6,WNW,296,7.9,12.9,47,0.0,,,0.0,meteobridge,2019-08-20 16:05:20,
2019-08-20 18:10:24,21.8,9.7,1024.6,West,279,0.0,4.8,46,0.0,,,0.0,meteobridge,2019-08-20 16:10:24,
2019-08-20 18:15:26,22.3,9.8,1024.6,West,281,0.0,9.7,45,0.0,,,0.0,meteobridge,2019-08-20 16:15:26,
2019-08-20 18:20:28,22.4,9.5,1024.9,WSW,240,4.7,12.9,44,0.0,,,0.0,meteobridge,2019-08-20 16:20:28,
2019-08-20 18:25:28,22.5,9.6,1024.6,WNW,287,7.9,9.7,44,0.0,,,0.0,meteobridge,2019-08-20 16:25:28,
2019-08-20 18:30:28,22.6,9.7,1024.6,West,280,1.4,12.9,44,0.0,,,0.0,meteobridge,2019-08-20 16:30:28,
2019-08-20 18:35:28,22.4,9.9,1024.9,West,281,4.7,9.7,45,0.0,,,0.0,meteobridge,2019-08-20 16:35:28,
2019-08-20 18:40:28,22.5,10.0,1024.9,North,4,0.0,14.5,45,0.0,,,0.0,meteobridge,2019-08-20 16:40:28,
2019-08-20 18:45:28,22.2,9.7,1024.9,WNW,283,6.4,14.5,45,0.0,,,0.0,meteobridge,2019-08-20 16:45:28,
2019-08-20 18:50:28,21.9,9.8,1024.9,WNW,289,4.7,9.7,46,0.0,,,0.0,meteobridge,2019-08-20 16:50:28,
2019-08-20 18:55:28,22.0,9.8,1024.9,West,264,4.7,4.8,46,0.0,,,0.0,meteobridge,2019-08-20 16:55:28,
2019-08-20 19:00:28,22.0,10.2,1024.9,WNW,290,4.7,8.0,47,0.0,,,0.0,meteobridge,2019-08-20 17:00:28,
2019-08-20 19:05:30,21.7,9.9,1024.9,West,275,12.9,12.9,47,0.0,,,0.0,meteobridge,2019-08-20 17:05:30,
2019-08-20 19:10:32,21.4,9.9,1025.3,West,271,9.7,9.7,48,0.0,,,0.0,meteobridge,2019-08-20 17:10:32,
2019-08-20 19:15:34,21.2,10.1,1025.3,WNW,297,7.9,12.9,49,0.0,,,0.0,meteobridge,2019-08-20 17:15:34,
2019-08-20 19:20:39,20.8,10.3,1025.3,WNW,295,4.7,12.9,51,0.0,,,0.0,meteobridge,2019-08-20 17:20:39,
2019-08-20 19:25:44,20.6,10.7,1025.3,WNW,284,1.4,4.8,53,0.0,,,0.0,meteobridge,2019-08-20 17:25:44,
2019-08-20 19:30:48,20.5,10.6,1025.3,WNW,283,3.2,12.9,53,0.0,,,0.0,meteobridge,2019-08-20 17:30:48,
2019-08-20 19:35:52,20.4,10.8,1025.6,ESE,103,0.0,4.8,54,0.0,,,0.0,meteobridge,2019-08-20 17:35:52,
2019-08-20 19:40:58,20.3,10.7,1025.6,WNW,290,8.0,9.7,54,0.0,,,0.0,meteobridge,2019-08-20 17:40:58,
2019-08-20 19:45:00,20.3,10.7,1025.6,NW,313,0.0,1.6,54,0.0,,,0.0,meteobridge,2019-08-20 17:45:00,
2019-08-20 19:50:00,20.5,10.9,1025.6,NNW,334,0.0,1.6,54,0.0,,,0.0,meteobridge,2019-08-20 17:50:00,
2019-08-20 19:55:00,20.7,11.1,1025.6,NNE,27,0.0,3.2,54,0.0,,,0.0,meteobridge,2019-08-20 17:55:00,
2019-08-20 20:00:00,20.5,11.1,1025.6,WSW,240,13.0,17.7,55,0.0,,,0.0,meteobridge,2019-08-20 18:00:00,
2019-08-20 20:05:01,20.2,11.4,1026.0,NE,51,3.2,9.7,57,0.0,,,0.0,meteobridge,2019-08-20 18:05:01,
2019-08-20 20:10:05,20.2,11.7,1026.0,ENE,78,0.0,14.5,58,0.0,,,0.0,meteobridge,2019-08-20 18:10:05,
2019-08-20 20:15:05,20.2,11.7,1026.0,NE,46,0.0,4.8,58,0.0,,,0.0,meteobridge,2019-08-20 18:15:05,
2019-08-20 20:20:05,20.1,11.8,1026.0,West,261,0.0,9.7,59,0.0,,,0.0,meteobridge,2019-08-20 18:20:05,
2019-08-20 20:25:05,19.8,11.8,1026.0,WSW,238,3.2,6.4,60,0.0,,,0.0,meteobridge,2019-08-20 18:25:05,
2019-08-20 20:30:05,19.6,11.9,1026.3,ENE,64,0.0,1.6,61,0.0,,,0.0,meteobridge,2019-08-20 18:30:05,
2019-08-20 20:35:05,19.4,11.9,1026.3,NE,43,0.0,3.2,62,0.0,,,0.0,meteobridge,2019-08-20 18:35:05,
2019-08-20 20:40:05,19.2,12.0,1026.3,West,267,1.4,4.8,63,0.0,,,0.0,meteobridge,2019-08-20 18:40:05,
2019-08-20 20:45:05,19.1,11.9,1026.3,East,99,4.7,4.8,63,0.0,,,0.0,meteobridge,2019-08-20 18:45:05,
2019-08-20 20:50:05,18.9,11.7,1026.3,WNW,285,0.0,1.6,63,0.0,,,0.0,meteobridge,2019-08-20 18:50:05,
2019-08-20 20:55:05,18.7,11.8,1026.6,ENE,76,4.8,4.8,64,0.0,,,0.0,meteobridge,2019-08-20 18:55:05,
2019-08-20 21:00:05,18.6,11.7,1026.6,NW,314,0.0,1.6,64,0.0,,,0.0,meteobridge,2019-08-20 19:00:05,
2019-08-20 21:05:05,18.4,11.7,1026.6,West,262,0.0,3.2,65,0.0,,,0.0,meteobridge,2019-08-20 19:05:05,
2019-08-20 21:10:05,18.2,11.5,1026.6,West,262,0.0,0.0,65,0.0,,,0.0,meteobridge,2019-08-20 19:10:05,
2019-08-20 21:15:05,18.1,11.6,1026.6,West,262,0.0,3.2,66,0.0,,,0.0,meteobridge,2019-08-20 19:15:05,
2019-08-20 21:20:05,17.9,11.7,1027.0,West,262,0.0,0.0,67,0.0,,,0.0,meteobridge,2019-08-20 19:20:05,
2019-08-20 21:25:05,17.8,11.6,1027.0,West,262,0.0,1.6,67,0.0,,,0.0,meteobridge,2019-08-20 19:25:05,
2019-08-20 21:30:05,17.7,11.7,1027.0,SSW,212,0.0,0.0,68,0.0,,,0.0,meteobridge,2019-08-20 19:30:05,
2019-08-20 21:35:05,17.7,11.5,1027.0,East,101,1.4,6.4,67,0.0,,,0.0,meteobridge,2019-08-20 19:35:05,
2019-08-20 21:40:05,17.6,11.6,1027.0,East,94,0.0,3.2,68,0.0,,,0.0,meteobridge,2019-08-20 19:40:05,
2019-08-20 21:45:07,17.4,11.4,1027.0,WNW,297,0.0,6.4,68,0.0,,,0.0,meteobridge,2019-08-20 19:45:07,
2019-08-20 21:50:09,17.4,11.4,1027.0,East,90,0.0,4.8,68,0.0,,,0.0,meteobridge,2019-08-20 19:50:09,
2019-08-20 21:55:09,17.3,11.6,1027.0,ENE,75,0.0,4.8,69,0.0,,,0.0,meteobridge,2019-08-20 19:55:09,
2019-08-20 22:00:09,17.2,11.5,1027.0,East,89,0.0,1.6,69,0.0,,,0.0,meteobridge,2019-08-20 20:00:09,
2019-08-20 22:05:11,17.1,11.6,1027.0,East,91,0.0,0.0,70,0.0,,,0.0,meteobridge,2019-08-20 20:05:11,
2019-08-20 22:10:13,17.0,11.5,1027.3,East,91,0.0,0.0,70,0.0,,,0.0,meteobridge,2019-08-20 20:10:13,
2019-08-20 22:15:15,16.9,11.4,1027.3,East,91,0.0,0.0,70,0.0,,,0.0,meteobridge,2019-08-20 20:15:15,
2019-08-20 22:20:43,16.8,11.3,1027.3,East,91,0.0,0.0,70,0.0,,,0.0,meteobridge,2019-08-20 20:20:43,
2019-08-20 22:25:43,16.7,11.4,1027.3,East,91,0.0,0.0,71,0.0,,,0.0,meteobridge,2019-08-20 20:25:43,
2019-08-20 22:30:45,16.6,11.5,1027.3,East,91,0.0,0.0,72,0.0,,,0.0,meteobridge,2019-08-20 20:30:45,
2019-08-20 22:35:47,16.4,11.3,1027.3,East,91,0.0,0.0,72,0.0,,,0.0,meteobridge,2019-08-20 20:35:47,
2019-08-20 22:40:47,16.2,11.6,1027.3,East,91,0.0,0.0,74,0.0,,,0.0,meteobridge,2019-08-20 20:40:47,
2019-08-20 22:45:49,16.1,11.5,1027.3,East,91,0.0,0.0,74,0.0,,,0.0,meteobridge,2019-08-20 20:45:49,
2019-08-20 22:50:53,15.9,11.5,1027.7,East,91,0.0,0.0,75,0.0,,,0.0,meteobridge,2019-08-20 20:50:53,
2019-08-20 22:55:57,15.8,11.4,1027.7,East,91,0.0,0.0,75,0.0,,,0.0,meteobridge,2019-08-20 20:55:57,
2019-08-20 23:00:59,15.8,11.6,1027.7,East,91,0.0,0.0,76,0.0,,,0.0,meteobridge,2019-08-20 21:00:59,
2019-08-20 23:05:00,15.7,11.5,1027.7,East,91,0.0,0.0,76,0.0,,,0.0,meteobridge,2019-08-20 21:05:00,
2019-08-20 23:10:00,15.7,11.7,1027.7,East,91,0.0,0.0,77,0.0,,,0.0,meteobridge,2019-08-20 21:10:00,
2019-08-20 23:15:00,15.6,11.6,1027.7,East,91,0.0,0.0,77,0.0,,,0.0,meteobridge,2019-08-20 21:15:00,
2019-08-20 23:20:00,15.6,11.6,1027.7,East,91,0.0,0.0,77,0.0,,,0.0,meteobridge,2019-08-20 21:20:00,
2019-08-20 23:25:05,15.6,11.6,1027.7,East,91,0.0,0.0,77,0.0,,,0.0,meteobridge,2019-08-20 21:25:05,
2019-08-20 23:30:11,15.6,11.6,1027.7,East,91,0.0,0.0,77,0.0,,,0.0,meteobridge,2019-08-20 21:30:11,
2019-08-20 23:35:13,15.6,11.6,1027.7,East,91,0.0,0.0,77,0.0,,,0.0,meteobridge,2019-08-20 21:35:13,
2019-08-20 23:40:15,15.5,11.5,1027.7,East,91,0.0,0.0,77,0.0,,,0.0,meteobridge,2019-08-20 21:40:15,
2019-08-20 23:45:17,15.5,11.7,1027.7,East,91,0.0,0.0,78,0.0,,,0.0,meteobridge,2019-08-20 21:45:17,
2019-08-20 23:50:19,15.4,11.6,1027.7,East,91,0.0,0.0,78,0.0,,,0.0,meteobridge,2019-08-20 21:50:19,
2019-08-20 23:55:19,15.3,11.5,1027.7,East,91,0.0,0.0,78,0.0,,,0.0,meteobridge,2019-08-20 21:55:19,